createdAt,value
2019-03-28T00:00:31.492Z,66.82
2019-03-28T00:03:02.064Z,65.20
2019-03-28T00:05:31.932Z,64.77
2019-03-28T00:08:01.799Z,51.35
2019-03-28T00:10:31.765Z,65.10
2019-03-28T00:13:01.789Z,67.10
2019-03-28T00:15:31.940Z,69.97
2019-03-28T00:18:02.387Z,69.55
2019-03-28T00:20:32.502Z,71.30
2019-03-28T00:23:07.275Z,66.90
2019-03-28T00:25:37.387Z,69.50
2019-03-28T00:28:08.229Z,69.37
2019-03-28T00:30:38.484Z,64.80
2019-03-28T00:33:08.475Z,65.05
2019-03-28T00:35:38.442Z,62.23
2019-03-28T00:38:08.064Z,66.47
2019-03-28T00:40:37.947Z,68.42
2019-03-28T00:43:07.875Z,67.25
2019-03-28T00:45:40.285Z,69.15
2019-03-28T00:48:11.031Z,64.62
2019-03-28T00:50:41.308Z,67.12
2019-03-28T00:53:11.236Z,66.70
2019-03-28T00:55:41.213Z,67.08
2019-03-28T00:58:10.829Z,69.37
2019-03-28T01:00:40.362Z,64.40
2019-03-28T01:03:11.158Z,66.12
2019-03-28T01:05:42.231Z,65.22
2019-03-28T01:08:12.344Z,65.75
2019-03-28T01:10:42.387Z,60.80
2019-03-28T01:13:11.926Z,63.05
2019-03-28T01:15:41.461Z,62.48
2019-03-28T01:18:11.414Z,66.72
2019-03-28T01:20:42.436Z,62.95
2019-03-28T01:23:12.398Z,64.30
2019-03-28T01:25:42.365Z,66.17
2019-03-28T01:28:12.388Z,64.75
2019-03-28T01:30:42.421Z,65.03
2019-03-28T01:33:12.368Z,60.05
2019-03-28T01:35:42.380Z,63.50
2019-03-28T01:38:12.312Z,63.33
2019-03-28T01:40:42.288Z,52.25
2019-03-28T01:43:12.228Z,56.13
2019-03-28T01:45:42.166Z,56.35
2019-03-28T01:48:12.922Z,55.98
2019-03-28T01:50:42.608Z,53.68
2019-03-28T01:53:12.562Z,59.83
2019-03-28T01:55:42.571Z,56.95
2019-03-28T01:58:12.582Z,58.80
2019-03-28T02:00:42.608Z,61.70
2019-03-28T02:03:12.538Z,59.88
2019-03-28T02:05:43.317Z,67.30
2019-03-28T02:08:13.456Z,62.40
2019-03-28T02:10:43.496Z,67.12
2019-03-28T02:13:13.468Z,70.65
2019-03-28T02:15:43.582Z,71.57
2019-03-28T02:18:13.568Z,75.65
2019-03-28T02:20:43.553Z,72.72
2019-03-28T02:23:13.534Z,70.47
2019-03-28T02:25:43.675Z,70.32
2019-03-28T02:28:13.761Z,61.63
2019-03-28T02:30:43.719Z,63.70
2019-03-28T02:33:13.759Z,61.63
2019-03-28T02:35:43.724Z,60.73
2019-03-28T02:38:13.663Z,59.95
2019-03-28T02:40:43.664Z,57.98
2019-03-28T02:43:13.655Z,56.60
2019-03-28T02:45:43.619Z,55.73
2019-03-28T02:48:13.596Z,58.73
2019-03-28T02:50:44.369Z,55.38
2019-03-28T02:53:14.439Z,59.65
2019-03-28T02:55:44.642Z,58.68
2019-03-28T02:58:14.967Z,58.83
2019-03-28T03:00:45.875Z,57.58
2019-03-28T03:03:15.669Z,54.55
2019-03-28T03:05:45.564Z,56.55
2019-03-28T03:08:15.607Z,52.65
2019-03-28T03:10:46.765Z,51.88
2019-03-28T03:13:16.875Z,55.15
2019-03-28T03:15:46.819Z,53.95
2019-03-28T03:18:21.024Z,48.55
2019-03-28T03:20:48.506Z,54.38
2019-03-28T03:23:19.943Z,53.33
2019-03-28T03:25:50.247Z,54.25
2019-03-28T03:28:20.398Z,48.85
2019-03-28T03:30:50.462Z,52.20
2019-03-28T03:33:20.622Z,53.33
2019-03-28T03:35:51.749Z,50.03
2019-03-28T03:38:21.823Z,51.77
2019-03-28T03:40:52.083Z,51.92
2019-03-28T03:43:23.059Z,51.20
2019-03-28T03:45:53.513Z,49.60
2019-03-28T03:48:23.496Z,51.18
2019-03-28T03:50:54.275Z,52.23
2019-03-28T03:53:24.289Z,46.45
2019-03-28T03:55:54.320Z,49.88
2019-03-28T03:58:24.497Z,48.17
2019-03-28T04:00:54.465Z,53.20
2019-03-28T04:03:24.482Z,50.48
2019-03-28T04:05:57.562Z,52.23
2019-03-28T04:08:27.659Z,51.05
2019-03-28T04:10:57.800Z,52.98
2019-03-28T04:13:27.874Z,52.78
2019-03-28T04:15:57.932Z,54.98
2019-03-28T04:18:28.018Z,56.80
2019-03-28T04:20:58.107Z,52.85
2019-03-28T04:23:28.311Z,56.58
2019-03-28T04:25:58.460Z,56.88
2019-03-28T04:28:32.234Z,57.10
2019-03-28T04:31:00.326Z,52.67
2019-03-28T04:33:30.382Z,51.50
2019-03-28T04:36:00.465Z,51.28
2019-03-28T04:38:30.637Z,51.48
2019-03-28T04:41:00.809Z,53.45
2019-03-28T04:43:30.981Z,52.08
2019-03-28T04:46:01.097Z,57.03
2019-03-28T04:48:31.198Z,52.70
2019-03-28T04:51:02.106Z,51.92
2019-03-28T04:53:33.281Z,49.40
2019-03-28T04:56:03.657Z,61.65
2019-03-28T04:58:43.739Z,59.38
2019-03-28T05:01:05.537Z,58.28
2019-03-28T05:03:35.640Z,60.90
2019-03-28T05:06:06.374Z,59.38
2019-03-28T05:08:36.521Z,53.60
2019-03-28T05:11:07.310Z,57.75
2019-03-28T05:13:37.443Z,53.20
2019-03-28T05:16:07.535Z,63.30
2019-03-28T05:18:37.291Z,39.65
2019-03-28T05:21:07.281Z,40.48
2019-03-28T05:23:37.336Z,50.50
2019-03-28T05:26:07.633Z,53.73
2019-03-28T05:28:37.725Z,49.48
2019-03-28T05:31:08.358Z,42.62
2019-03-28T05:33:38.133Z,50.05
2019-03-28T05:36:08.390Z,44.73
2019-03-28T05:38:38.497Z,42.55
2019-03-28T05:41:08.553Z,47.38
2019-03-28T05:43:38.837Z,48.55
2019-03-28T05:46:08.952Z,44.83
2019-03-28T05:48:39.032Z,43.55
2019-03-28T05:51:09.563Z,43.42
2019-03-28T05:53:39.719Z,37.70
2019-03-28T05:56:10.659Z,37.25
2019-03-28T05:58:40.673Z,37.83
2019-03-28T06:01:10.626Z,30.25
2019-03-28T06:03:40.157Z,40.38
2019-03-28T06:06:10.153Z,35.60
2019-03-28T06:08:40.144Z,32.70
2019-03-28T06:11:10.148Z,40.63
2019-03-28T06:13:40.280Z,30.05
2019-03-28T06:16:10.216Z,40.45
2019-03-28T06:18:40.178Z,36.77
2019-03-28T06:21:10.114Z,43.35
2019-03-28T06:23:40.140Z,36.17
2019-03-28T06:26:10.165Z,33.15
2019-03-28T06:28:40.210Z,31.07
2019-03-28T06:31:10.729Z,37.00
2019-03-28T06:33:40.940Z,32.40
2019-03-28T06:36:10.979Z,39.25
2019-03-28T06:38:41.075Z,33.67
2019-03-28T06:41:10.722Z,41.55
2019-03-28T06:43:42.058Z,38.40
2019-03-28T06:46:11.945Z,39.33
2019-03-28T06:48:41.771Z,25.02
2019-03-28T06:51:11.968Z,41.85
2019-03-28T06:53:41.908Z,38.30
2019-03-28T06:56:12.030Z,35.65
2019-03-28T06:58:41.947Z,33.65
2019-03-28T07:01:11.937Z,40.10
2019-03-28T07:03:41.851Z,37.80
2019-03-28T07:06:11.808Z,35.60
2019-03-28T07:08:41.744Z,38.85
2019-03-28T07:11:11.698Z,38.83
2019-03-28T07:13:41.740Z,38.67
2019-03-28T07:16:11.671Z,38.88
2019-03-28T07:18:41.283Z,38.50
2019-03-28T07:21:11.175Z,37.28
2019-03-28T07:23:41.116Z,37.67
2019-03-28T07:26:10.841Z,38.55
2019-03-28T07:28:40.790Z,38.50
2019-03-28T07:31:10.798Z,37.73
2019-03-28T07:33:40.770Z,43.02
2019-03-28T07:36:10.840Z,41.70
2019-03-28T07:38:40.979Z,42.50
2019-03-28T07:41:11.250Z,40.08
2019-03-28T07:43:41.040Z,35.68
2019-03-28T07:46:10.955Z,36.40
2019-03-28T07:48:40.904Z,38.25
2019-03-28T07:51:10.921Z,38.85
2019-03-28T07:53:40.922Z,40.38
2019-03-28T07:56:10.912Z,40.58
2019-03-28T07:58:43.945Z,40.03
2019-03-28T08:01:12.699Z,39.58
2019-03-28T08:03:43.649Z,36.35
2019-03-28T08:06:13.623Z,34.88
2019-03-28T08:08:44.286Z,40.23
2019-03-28T08:11:14.579Z,37.58
2019-03-28T08:13:44.552Z,39.60
2019-03-28T08:16:14.499Z,39.15
2019-03-28T08:18:45.380Z,41.63
2019-03-28T08:21:15.560Z,37.88
2019-03-28T08:23:45.500Z,38.48
2019-03-28T08:26:15.548Z,35.43
2019-03-28T08:28:45.548Z,36.13
2019-03-28T08:31:15.700Z,39.50
2019-03-28T08:33:46.488Z,34.10
2019-03-28T08:36:16.448Z,42.15
2019-03-28T08:38:49.048Z,39.55
2019-03-28T08:41:19.663Z,41.20
2019-03-28T08:43:49.816Z,40.28
2019-03-28T08:46:19.980Z,41.30
2019-03-28T08:48:49.999Z,40.50
2019-03-28T08:51:20.224Z,38.35
2019-03-28T08:53:50.303Z,36.35
2019-03-28T08:56:20.494Z,39.90
2019-03-28T08:58:52.465Z,39.65
2019-03-28T09:01:23.102Z,41.30
2019-03-28T09:03:53.150Z,41.15
2019-03-28T09:06:23.166Z,40.67
2019-03-28T09:08:53.243Z,43.20
2019-03-28T09:11:23.163Z,42.17
2019-03-28T09:13:53.346Z,44.03
2019-03-28T09:16:23.335Z,46.70
2019-03-28T09:18:53.410Z,44.38
2019-03-28T09:21:23.365Z,43.58
2019-03-28T09:23:53.520Z,43.35
2019-03-28T09:26:23.712Z,45.90
2019-03-28T09:28:53.751Z,46.48
2019-03-28T09:31:24.229Z,47.75
2019-03-28T09:33:54.404Z,49.33
2019-03-28T09:36:24.941Z,45.75
2019-03-28T09:38:54.965Z,44.98
2019-03-28T09:41:24.968Z,44.70
2019-03-28T09:43:56.048Z,41.53
2019-03-28T09:46:27.317Z,43.17
2019-03-28T09:48:57.904Z,41.15
2019-03-28T09:51:28.121Z,41.58
2019-03-28T09:53:58.395Z,44.08
2019-03-28T09:56:28.817Z,42.45
2019-03-28T09:59:00.316Z,40.83
2019-03-28T10:01:31.050Z,43.40
2019-03-28T10:04:01.129Z,42.40
2019-03-28T10:06:31.188Z,42.65
2019-03-28T10:09:01.413Z,41.50
2019-03-28T10:11:33.016Z,42.43
2019-03-28T10:14:03.019Z,43.00
2019-03-28T10:16:33.303Z,42.08
2019-03-28T10:19:03.239Z,43.10
2019-03-28T10:21:33.320Z,43.68
2019-03-28T10:24:03.446Z,42.90
2019-03-28T10:26:33.532Z,44.08
2019-03-28T10:29:03.473Z,45.40
2019-03-28T10:31:33.968Z,44.05
2019-03-28T10:34:04.087Z,43.20
2019-03-28T10:36:34.472Z,42.95
2019-03-28T10:39:06.860Z,40.25
2019-03-28T10:41:39.725Z,41.00
2019-03-28T10:44:09.609Z,40.73
2019-03-28T10:46:39.764Z,36.68
2019-03-28T10:49:09.938Z,42.80
2019-03-28T10:51:39.968Z,41.18
2019-03-28T10:54:19.863Z,41.18
2019-03-28T10:56:51.839Z,42.05
2019-03-28T10:59:23.324Z,41.77
2019-03-28T11:01:49.988Z,41.13
2019-03-28T11:04:17.487Z,41.15
2019-03-28T11:06:47.591Z,40.48
2019-03-28T11:09:17.636Z,39.95
2019-03-28T11:11:47.747Z,37.90
2019-03-28T11:14:17.784Z,35.88
2019-03-28T11:16:48.450Z,39.30
2019-03-28T11:19:18.646Z,38.08
2019-03-28T11:21:48.879Z,35.03
2019-03-28T11:24:18.950Z,36.95
2019-03-28T11:26:49.083Z,36.08
2019-03-28T11:29:20.175Z,34.00
2019-03-28T11:31:52.353Z,33.25
2019-03-28T11:34:22.634Z,35.85
2019-03-28T11:36:52.660Z,36.23
2019-03-28T11:39:22.783Z,36.33
2019-03-28T11:42:00.489Z,34.73
2019-03-28T11:44:30.283Z,35.40
2019-03-28T11:47:08.951Z,34.55
2019-03-28T11:49:38.918Z,34.40
2019-03-28T11:52:15.653Z,35.38
2019-03-28T11:54:45.639Z,35.90
2019-03-28T11:57:16.051Z,14.95
2019-03-28T11:59:46.180Z,12.37
2019-03-28T12:02:20.158Z,12.40
2019-03-28T12:04:48.146Z,15.00
2019-03-28T12:07:18.140Z,10.78
2019-03-28T12:10:15.074Z,11.48
2019-03-28T12:12:45.016Z,11.80
2019-03-28T12:15:16.570Z,11.60
2019-03-28T12:17:46.593Z,10.55
2019-03-28T12:20:16.773Z,10.08
2019-03-28T12:22:46.703Z,9.00
2019-03-28T12:25:16.968Z,8.90
2019-03-28T12:27:47.013Z,9.10
2019-03-28T12:30:18.065Z,12.00
2019-03-28T12:32:48.274Z,12.07
2019-03-28T12:35:18.222Z,11.18
2019-03-28T12:37:48.167Z,11.38
2019-03-28T12:40:18.312Z,9.75
2019-03-28T12:42:48.240Z,10.63
2019-03-28T12:45:18.199Z,9.88
2019-03-28T12:47:48.134Z,11.78
2019-03-28T12:50:18.336Z,11.83
2019-03-28T12:52:48.400Z,10.45
2019-03-28T12:55:18.341Z,9.93
2019-03-28T12:57:48.667Z,10.13
2019-03-28T13:00:23.468Z,10.08
2019-03-28T13:02:54.148Z,9.28
2019-03-28T13:05:24.109Z,8.45
2019-03-28T13:07:54.065Z,7.87
2019-03-28T13:10:24.163Z,7.92
2019-03-28T13:12:54.173Z,8.13
2019-03-28T13:15:24.095Z,7.55
2019-03-28T13:17:54.106Z,7.15
2019-03-28T13:20:24.104Z,7.17
2019-03-28T13:22:54.129Z,7.72
2019-03-28T13:25:24.064Z,8.00
2019-03-28T13:27:54.010Z,7.92
2019-03-28T13:30:24.105Z,8.90
2019-03-28T13:32:54.117Z,8.50
2019-03-28T13:35:24.151Z,9.08
2019-03-28T13:37:54.074Z,9.38
2019-03-28T13:40:24.027Z,8.25
2019-03-28T13:42:53.992Z,8.05
2019-03-28T13:45:23.940Z,8.25
2019-03-28T13:47:54.485Z,8.70
2019-03-28T13:50:25.146Z,8.68
2019-03-28T13:52:55.407Z,9.55
2019-03-28T13:55:25.371Z,9.30
2019-03-28T13:57:55.318Z,9.00
2019-03-28T14:00:30.746Z,9.63
2019-03-28T14:03:02.321Z,8.78
2019-03-28T14:05:32.277Z,9.30
2019-03-28T14:08:02.216Z,9.90
2019-03-28T14:10:32.254Z,10.03
2019-03-28T14:13:02.307Z,9.95
2019-03-28T14:15:33.298Z,10.25
2019-03-28T14:18:03.294Z,10.15
2019-03-28T14:20:37.541Z,10.48
2019-03-28T14:23:07.559Z,10.18
2019-03-28T14:25:37.575Z,9.80
2019-03-28T14:28:07.517Z,9.95
2019-03-28T14:30:39.502Z,10.58
2019-03-28T14:33:11.491Z,9.85
2019-03-28T14:35:40.763Z,10.08
2019-03-28T14:38:10.748Z,9.88
2019-03-28T14:40:40.708Z,10.05
2019-03-28T14:43:10.917Z,10.28
2019-03-28T14:45:41.071Z,9.50
2019-03-28T14:48:11.047Z,11.12
2019-03-28T14:50:41.355Z,11.57
2019-03-28T14:53:11.406Z,11.63
2019-03-28T14:55:41.485Z,12.33
2019-03-28T14:58:11.487Z,12.13
2019-03-28T15:00:48.992Z,11.93
2019-03-28T15:03:26.134Z,12.03
2019-03-28T15:05:51.159Z,12.25
2019-03-28T15:08:21.188Z,11.60
2019-03-28T15:10:51.307Z,12.33
2019-03-28T15:13:21.316Z,11.80
2019-03-28T15:15:51.507Z,13.38
2019-03-28T15:18:21.526Z,12.78
2019-03-28T15:20:51.771Z,12.23
2019-03-28T15:23:21.717Z,13.30
2019-03-28T15:25:51.641Z,13.60
2019-03-28T15:28:21.659Z,14.25
2019-03-28T15:30:53.119Z,13.20
2019-03-28T15:33:23.096Z,12.78
2019-03-28T15:35:53.303Z,12.30
2019-03-28T15:38:23.252Z,13.25
2019-03-28T15:40:53.203Z,14.15
2019-03-28T15:43:23.229Z,13.32
2019-03-28T15:45:53.185Z,13.62
2019-03-28T15:48:23.202Z,14.53
2019-03-28T15:50:53.635Z,13.43
2019-03-28T15:53:23.761Z,14.63
2019-03-28T15:55:54.056Z,13.68
2019-03-28T15:58:24.021Z,13.45
2019-03-28T16:00:54.070Z,15.00
2019-03-28T16:03:24.089Z,14.25
2019-03-28T16:05:58.610Z,14.05
2019-03-28T16:08:26.015Z,13.78
2019-03-28T16:10:55.985Z,14.28
2019-03-28T16:13:26.488Z,15.35
2019-03-28T16:15:56.446Z,15.15
2019-03-28T16:18:26.520Z,15.18
2019-03-28T16:20:56.555Z,14.60
2019-03-28T16:23:26.555Z,14.63
2019-03-28T16:25:56.511Z,15.90
2019-03-28T16:28:28.114Z,17.10
2019-03-28T16:30:57.846Z,16.73
2019-03-28T16:33:27.978Z,16.85
2019-03-28T16:36:17.283Z,16.50
2019-03-28T16:38:47.211Z,16.42
2019-03-28T16:41:16.823Z,16.62
2019-03-28T16:43:46.712Z,16.77
2019-03-28T16:46:16.762Z,17.55
2019-03-28T16:48:48.008Z,19.00
2019-03-28T16:51:18.281Z,17.65
2019-03-28T16:53:48.380Z,18.10
2019-03-28T16:56:18.339Z,18.37
2019-03-28T16:58:48.307Z,18.17
2019-03-28T17:01:18.342Z,19.32
2019-03-28T17:03:48.482Z,19.55
2019-03-28T17:06:18.599Z,19.17
2019-03-28T17:08:49.027Z,19.30
2019-03-28T17:11:19.023Z,18.25
2019-03-28T17:13:49.304Z,18.10
2019-03-28T17:16:19.515Z,18.70
2019-03-28T17:18:49.532Z,19.40
2019-03-28T17:21:19.524Z,17.85
2019-03-28T17:23:49.562Z,18.92
2019-03-28T17:26:19.525Z,18.02
2019-03-28T17:28:49.649Z,18.67
2019-03-28T17:31:19.767Z,19.27
2019-03-28T17:33:49.884Z,18.92
2019-03-28T17:36:19.903Z,19.23
2019-03-28T17:38:50.983Z,19.67
2019-03-28T17:41:20.606Z,20.35
2019-03-28T17:43:50.464Z,20.32
2019-03-28T17:46:20.398Z,21.57
2019-03-28T17:48:50.415Z,20.57
2019-03-28T17:51:20.391Z,20.68
2019-03-28T17:53:50.351Z,21.65
2019-03-28T17:56:21.746Z,21.33
2019-03-28T17:58:52.099Z,22.02
2019-03-28T18:01:22.144Z,21.97
2019-03-28T18:03:52.190Z,24.40
2019-03-28T18:06:22.117Z,22.65
2019-03-28T18:08:52.146Z,24.20
2019-03-28T18:11:22.217Z,26.48
2019-03-28T18:13:52.216Z,27.77
2019-03-28T18:16:22.132Z,28.85
2019-03-28T18:18:52.142Z,27.48
2019-03-28T18:21:22.097Z,29.70
2019-03-28T18:23:52.130Z,34.45
2019-03-28T18:26:22.427Z,45.67
2019-03-28T18:28:52.511Z,55.73
2019-03-28T18:31:22.957Z,54.98
2019-03-28T18:33:52.984Z,47.90
2019-03-28T18:36:22.982Z,46.88
2019-03-28T18:38:53.019Z,49.23
2019-03-28T18:41:22.988Z,49.10
2019-03-28T18:43:53.003Z,49.88
2019-03-28T18:46:23.005Z,50.05
2019-03-28T18:48:53.027Z,55.50
2019-03-28T18:51:23.099Z,61.30
2019-03-28T18:53:53.041Z,46.77
2019-03-28T18:56:22.980Z,49.00
2019-03-28T18:58:52.945Z,61.42
2019-03-28T19:01:23.010Z,72.27
2019-03-28T19:03:52.936Z,47.65
2019-03-28T19:06:23.137Z,50.05
2019-03-28T19:08:53.743Z,45.20
2019-03-28T19:11:23.958Z,44.30
2019-03-28T19:13:54.111Z,55.08
2019-03-28T19:16:24.123Z,60.83
2019-03-28T19:18:54.164Z,64.05
2019-03-28T19:21:24.094Z,51.28
2019-03-28T19:23:54.068Z,61.15
2019-03-28T19:26:24.047Z,61.68
2019-03-28T19:28:56.137Z,63.48
2019-03-28T19:31:26.799Z,63.83
2019-03-28T19:33:56.786Z,67.53
2019-03-28T19:36:27.016Z,73.75
2019-03-28T19:38:57.199Z,75.03
2019-03-28T19:41:27.169Z,76.35
2019-03-28T19:43:57.491Z,74.55
2019-03-28T19:46:27.604Z,77.62
2019-03-28T19:48:57.553Z,79.15
2019-03-28T19:51:28.548Z,77.27
2019-03-28T19:53:58.642Z,79.30
2019-03-28T19:56:28.695Z,78.95
2019-03-28T19:58:59.347Z,81.75
2019-03-28T20:01:29.802Z,81.35
2019-03-28T20:04:00.032Z,76.57
2019-03-28T20:06:30.159Z,68.60
2019-03-28T20:09:00.188Z,73.75
2019-03-28T20:11:30.155Z,77.50
2019-03-28T20:14:02.178Z,82.88
2019-03-28T20:16:32.523Z,92.60
2019-03-28T20:19:02.600Z,98.07
2019-03-28T20:21:32.571Z,92.20
2019-03-28T20:24:02.577Z,93.40
2019-03-28T20:26:32.678Z,84.13
2019-03-28T20:29:02.730Z,71.00
2019-03-28T20:31:32.659Z,67.03
2019-03-28T20:34:03.177Z,88.62
2019-03-28T20:36:38.653Z,88.95
2019-03-28T20:39:07.197Z,93.80
2019-03-28T20:41:47.384Z,90.97
2019-03-28T20:44:18.161Z,82.10
2019-03-28T20:46:48.192Z,87.92
2019-03-28T20:49:18.561Z,85.00
2019-03-28T20:51:48.571Z,77.22
2019-03-28T20:54:19.025Z,89.97
2019-03-28T20:56:48.993Z,86.28
2019-03-28T20:59:19.050Z,102.95
2019-03-28T21:01:49.008Z,83.17
2019-03-28T21:04:30.520Z,91.87
2019-03-28T21:06:50.707Z,95.07
2019-03-28T21:09:20.637Z,84.28
2019-03-28T21:11:51.967Z,78.30
2019-03-28T21:14:21.760Z,77.08
2019-03-28T21:16:51.690Z,96.78
2019-03-28T21:19:21.328Z,97.05
2019-03-28T21:21:51.200Z,94.90
2019-03-28T21:24:20.884Z,94.85
2019-03-28T21:26:50.949Z,85.17
2019-03-28T21:29:22.159Z,90.10
2019-03-28T21:31:52.415Z,87.08
2019-03-28T21:34:22.024Z,92.85
2019-03-28T21:36:51.893Z,91.08
2019-03-28T21:39:46.624Z,93.52
2019-03-28T21:42:16.656Z,90.17
2019-03-28T21:44:46.631Z,94.45
2019-03-28T21:47:16.565Z,94.52
2019-03-28T21:49:46.179Z,91.80
2019-03-28T21:52:16.076Z,95.30
2019-03-28T21:54:46.093Z,96.30
2019-03-28T21:57:16.097Z,97.53
2019-03-28T21:59:46.137Z,97.97
2019-03-28T22:02:15.786Z,99.13
2019-03-28T22:04:45.678Z,100.75
2019-03-28T22:07:15.934Z,100.30
2019-03-28T22:09:45.883Z,89.50
2019-03-28T22:12:15.902Z,103.38
2019-03-28T22:14:48.166Z,105.07
2019-03-28T22:17:17.590Z,102.85
2019-03-28T22:19:47.821Z,102.50
2019-03-28T22:22:17.786Z,102.05
2019-03-28T22:24:47.761Z,101.97
2019-03-28T22:27:17.704Z,98.90
2019-03-28T22:29:47.660Z,102.05
2019-03-28T22:32:17.687Z,102.05
2019-03-28T22:34:47.669Z,101.35
2019-03-28T22:37:17.695Z,100.70
2019-03-28T22:39:47.681Z,98.50
2019-03-28T22:42:17.685Z,100.58
2019-03-28T22:44:47.846Z,100.42
2019-03-28T22:47:18.047Z,101.15
2019-03-28T22:49:47.982Z,101.33
2019-03-28T22:52:17.991Z,95.17
2019-03-28T22:54:48.017Z,98.82
2019-03-28T22:57:18.400Z,95.83
2019-03-28T22:59:49.161Z,97.97
2019-03-28T23:02:19.188Z,93.30
2019-03-28T23:04:49.194Z,96.08
2019-03-28T23:07:19.181Z,100.00
2019-03-28T23:09:49.816Z,99.28
2019-03-28T23:12:20.372Z,97.72
2019-03-28T23:14:50.313Z,97.17
2019-03-28T23:17:22.144Z,96.67
2019-03-28T23:19:52.101Z,95.20
2019-03-28T23:22:22.082Z,98.67
2019-03-28T23:24:53.743Z,96.15
2019-03-28T23:27:23.915Z,98.03
2019-03-28T23:29:53.871Z,97.82
2019-03-28T23:32:23.930Z,101.70
2019-03-28T23:34:53.869Z,100.47
2019-03-28T23:37:24.870Z,101.35
2019-03-28T23:39:55.300Z,99.95
2019-03-28T23:42:25.244Z,104.83
2019-03-28T23:44:55.186Z,102.90
2019-03-28T23:47:25.351Z,101.80
2019-03-28T23:49:55.560Z,99.47
2019-03-28T23:52:25.552Z,102.62
2019-03-28T23:54:55.633Z,101.60
2019-03-28T23:57:25.638Z,100.87
2019-03-28T23:59:55.602Z,96.95
